Decherd, TN

4:43 PM CDT on September 30, 2016 (GMT -0500)
Winchester Municipal

Weather History for KBGF - April, 2013

Change the Weather History Date:

Saturday, April 6, 2013

  Actual Average (KTHA) Record (KTHA)
Temperature  
Mean Temperature 53 °F -  
Max Temperature 73 °F 66 °F 71 °F (2013)
Min Temperature 33 °F 41 °F 35 °F (2013)
Degree Days  
Heating Degree Days 12    
Growing Degree Days 3 (Base 50)    
Moisture  
Dew Point 37 °F    
Average Humidity 59    
Maximum Humidity 100    
Minimum Humidity 27    
Precipitation  
Precipitation 0.00 in - - ()
Sea Level Pressure  
Sea Level Pressure 30.10 in    
Wind  
Wind Speed 3 mph (South)    
Max Wind Speed 15 mph    
Max Gust Speed -    
Visibility 10 miles    
Events      
Averages and records for this station are not official NWS values.
T = Trace of Precipitation, MM = Missing Value Source: NWS Daily Summary

Daily Weather History Graph

Daily Weather History Graph

Search for Another Location

Airport or City:

Trip Planner

Search our weather history database for the weather conditions in past years. The results will help you decide how hot, cold, wet, or windy it might be!

Date:

Astronomy

Apr. 06, 2013 Rise Set
Actual Time 7:23 AM EDT 8:09 PM EDT
Civil Twilight 6:58 AM EDT 8:35 PM EDT
Nautical Twilight 6:27 AM EDT 9:06 PM EDT
Astronomical Twilight 5:56 AM EDT 9:37 PM EDT
Moon 4:59 AM EDT (4/6) 4:45 PM EDT (4/6)
Length of Visible Light 13h 37m
Length of Day
12h 46m
Waning Crescent, 15% of the Moon is Illuminated
Apr 6
Waning Crescent
Apr 10
New
Apr 18
First Quarter
Apr 25
Full
May 2
Last Quarter

Hourly Weather History & Observations

Time (EDT) Temp. Dew Point Humidity Pressure Visibility Wind Dir Wind Speed Gust Speed Precip Events Conditions
12:15 AM 42.8 °F 39.2 °F 87% 30.12 in 10.0 mi Calm Calm - N/A   Clear
12:35 AM 39.2 °F 37.4 °F 93% 30.12 in 10.0 mi Calm Calm - N/A   Clear
12:55 AM 39.2 °F 37.4 °F 93% 30.12 in 10.0 mi Calm Calm - N/A   Clear
1:35 AM 39.2 °F 37.4 °F 93% 30.12 in 10.0 mi Calm Calm - N/A   Clear
1:55 AM 39.2 °F 37.4 °F 93% 30.13 in 10.0 mi Calm Calm - N/A   Clear
2:15 AM 37.4 °F 35.6 °F 93% 30.12 in 10.0 mi Calm Calm - N/A   Clear
2:35 AM 37.4 °F 35.6 °F 93% 30.11 in 10.0 mi Calm Calm - N/A   Clear
2:55 AM 37.4 °F 35.6 °F 93% 30.11 in 10.0 mi Calm Calm - N/A   Clear
3:15 AM 39.2 °F 37.4 °F 93% 30.11 in 10.0 mi Calm Calm - N/A   Clear
3:35 AM 37.4 °F 35.6 °F 93% 30.11 in 10.0 mi Calm Calm - N/A   Clear
3:55 AM 35.6 °F 35.6 °F 100% 30.11 in 10.0 mi Calm Calm - N/A   Clear
4:15 AM 37.4 °F 35.6 °F 93% 30.11 in 10.0 mi Calm Calm - N/A   Clear
4:35 AM 35.6 °F 35.6 °F 100% 30.11 in 10.0 mi Calm Calm - N/A   Clear
4:55 AM 35.6 °F 35.6 °F 100% 30.11 in 10.0 mi Calm Calm - N/A   Clear
5:15 AM 35.6 °F 35.6 °F 100% 30.12 in 10.0 mi Calm Calm - N/A   Clear
5:35 AM 35.6 °F 33.8 °F 93% 30.12 in 10.0 mi Calm Calm - N/A   Clear
5:55 AM 35.6 °F 33.8 °F 93% 30.12 in 10.0 mi Calm Calm - N/A   Clear
6:15 AM 35.6 °F 35.6 °F 100% 30.12 in 10.0 mi Calm Calm - N/A   Clear
6:35 AM 35.6 °F 33.8 °F 93% 30.12 in 10.0 mi Calm Calm - N/A   Clear
6:55 AM 35.6 °F 35.6 °F 100% 30.13 in 10.0 mi Calm Calm - N/A   Clear
7:15 AM 33.8 °F 33.8 °F 100% 30.14 in 10.0 mi Calm Calm - N/A   Clear
7:35 AM 33.8 °F 33.8 °F 100% 30.14 in 10.0 mi Calm Calm - N/A   Clear
7:55 AM 35.6 °F 35.6 °F 100% 30.15 in 10.0 mi Calm Calm - N/A   Clear
8:15 AM 37.4 °F 35.6 °F 93% 30.15 in 10.0 mi Calm Calm - N/A   Clear
8:35 AM 39.2 °F 37.4 °F 93% 30.16 in 10.0 mi Calm Calm - N/A   Clear
8:55 AM 42.8 °F 39.2 °F 87% 30.16 in 10.0 mi Calm Calm - N/A   Clear
9:15 AM 48.2 °F 42.8 °F 82% 30.16 in 10.0 mi Calm Calm - N/A   Clear
9:35 AM 51.8 °F 42.8 °F 71% 30.16 in 10.0 mi Calm Calm - N/A   Clear
9:55 AM 57.2 °F 44.6 °F 63% 30.16 in 10.0 mi Calm Calm - N/A   Clear
10:15 AM 60.8 °F 39.2 °F 45% 30.16 in 10.0 mi SE 4.6 mph - N/A   Clear
10:35 AM 62.6 °F 39.2 °F 42% 30.16 in 10.0 mi SE 5.8 mph - N/A   Clear
10:55 AM 62.6 °F 35.6 °F 37% 30.17 in 10.0 mi SE 13.8 mph - N/A   Clear
11:15 AM 64.4 °F 37.4 °F 37% 30.16 in 10.0 mi SE 12.7 mph - N/A   Clear
11:35 AM 64.4 °F 37.4 °F 37% 30.16 in 10.0 mi SE 15.0 mph - N/A   Clear
11:55 AM 64.4 °F 37.4 °F 37% 30.16 in 10.0 mi ESE 12.7 mph - N/A   Clear
12:15 PM 66.2 °F 35.6 °F 32% 30.16 in 10.0 mi SSE 10.4 mph - N/A   Clear
12:35 PM 66.2 °F 33.8 °F 30% 30.16 in 10.0 mi SSE 11.5 mph - N/A   Clear
12:55 PM 66.2 °F 33.8 °F 30% 30.15 in 10.0 mi South 8.1 mph - N/A   Clear
1:15 PM 68.0 °F 35.6 °F 30% 30.14 in 10.0 mi SSE 10.4 mph - N/A   Clear
1:35 PM 69.8 °F 33.8 °F 27% 30.13 in 10.0 mi South 11.5 mph - N/A   Clear
1:55 PM 69.8 °F 35.6 °F 28% 30.13 in 10.0 mi SSW 8.1 mph - N/A   Clear
2:15 PM 69.8 °F 35.6 °F 28% 30.12 in 10.0 mi SSE 9.2 mph - N/A   Clear
2:35 PM 69.8 °F 37.4 °F 31% 30.11 in 10.0 mi South 8.1 mph - N/A   Clear
2:55 PM 69.8 °F 37.4 °F 31% 30.10 in 10.0 mi SW 11.5 mph - N/A   Clear
3:15 PM 69.8 °F 37.4 °F 31% 30.10 in 10.0 mi South 6.9 mph - N/A   Clear
3:35 PM 71.6 °F 37.4 °F 29% 30.09 in 10.0 mi South 9.2 mph - N/A   Clear
3:55 PM 69.8 °F 37.4 °F 31% 30.08 in 10.0 mi South 10.4 mph - N/A   Clear
4:15 PM 71.6 °F 35.6 °F 27% 30.07 in 10.0 mi SSW 9.2 mph - N/A   Clear
4:35 PM 71.6 °F 37.4 °F 29% 30.06 in 10.0 mi South 8.1 mph - N/A   Clear
4:55 PM 73.4 °F 37.4 °F 27% 30.06 in 10.0 mi SSW 9.2 mph - N/A   Clear
5:15 PM 71.6 °F 37.4 °F 29% 30.05 in 10.0 mi South 10.4 mph - N/A   Clear
5:35 PM 71.6 °F 37.4 °F 29% 30.05 in 10.0 mi South 10.4 mph - N/A   Clear
5:55 PM 71.6 °F 35.6 °F 27% 30.05 in 10.0 mi South 8.1 mph - N/A   Clear
6:15 PM 71.6 °F 37.4 °F 29% 30.05 in 10.0 mi South 12.7 mph - N/A   Clear
6:35 PM 69.8 °F 37.4 °F 31% 30.05 in 10.0 mi South 5.8 mph - N/A   Clear
6:55 PM 69.8 °F 37.4 °F 31% 30.05 in 10.0 mi South 10.4 mph - N/A   Clear
7:15 PM 69.8 °F 37.4 °F 31% 30.04 in 10.0 mi South 6.9 mph - N/A   Clear
7:35 PM 69.8 °F 37.4 °F 31% 30.04 in 10.0 mi South 11.5 mph - N/A   Clear
7:55 PM 66.2 °F 37.4 °F 35% 30.04 in 10.0 mi South 5.8 mph - N/A   Clear
8:15 PM 64.4 °F 37.4 °F 37% 30.04 in 10.0 mi South 5.8 mph - N/A   Clear
8:35 PM 62.6 °F 37.4 °F 39% 30.04 in 10.0 mi South 5.8 mph - N/A   Clear
8:55 PM 62.6 °F 39.2 °F 42% 30.04 in 10.0 mi South 4.6 mph - N/A   Clear
9:15 PM 62.6 °F 39.2 °F 42% 30.05 in 10.0 mi South 4.6 mph - N/A   Clear
9:35 PM 62.6 °F 39.2 °F 42% 30.05 in 10.0 mi South 4.6 mph - N/A   Clear
9:55 PM 60.8 °F 37.4 °F 42% 30.05 in 10.0 mi SSE 3.5 mph - N/A   Clear
10:15 PM 60.8 °F 39.2 °F 45% 30.05 in 10.0 mi Calm Calm - N/A   Clear
10:35 PM 60.8 °F 39.2 °F 45% 30.06 in 10.0 mi Calm Calm - N/A   Clear
10:55 PM 55.4 °F 41.0 °F 58% 30.06 in 10.0 mi Calm Calm - N/A   Clear
11:15 PM 55.4 °F 39.2 °F 54% 30.07 in 10.0 mi Calm Calm - N/A   Clear
11:35 PM 53.6 °F 39.2 °F 58% 30.07 in 10.0 mi SSW 3.5 mph - N/A   Clear
11:55 PM 59.0 °F 37.4 °F 45% 30.07 in 10.0 mi South 3.5 mph - N/A   Clear